sensor_id;sensor_type;location;lat;lon;timestamp;temperature;humidity
43949;DHT22;29429;51.074;13.764;2023-04-01T00:11:39;10.70;99.90
43949;DHT22;29429;51.074;13.764;2023-04-01T00:14:07;10.60;99.90
43949;DHT22;29429;51.074;13.764;2023-04-01T00:16:35;10.50;99.90
43949;DHT22;29429;51.074;13.764;2023-04-01T00:19:02;10.50;99.90
43949;DHT22;29429;51.074;13.764;2023-04-01T00:21:29;10.50;99.90
43949;DHT22;29429;51.074;13.764;2023-04-01T00:23:56;10.50;99.90
43949;DHT22;29429;51.074;13.764;2023-04-01T00:26:24;10.40;99.90
43949;DHT22;29429;51.074;13.764;2023-04-01T00:28:52;10.50;99.90
43949;DHT22;29429;51.074;13.764;2023-04-01T00:31:19;10.70;99.90
43949;DHT22;29429;51.074;13.764;2023-04-01T00:33:47;10.50;99.90
43949;DHT22;29429;51.074;13.764;2023-04-01T00:36:20;10.50;99.90
43949;DHT22;29429;51.074;13.764;2023-04-01T00:38:49;10.50;99.90
43949;DHT22;29429;51.074;13.764;2023-04-01T00:41:18;10.50;99.90
43949;DHT22;29429;51.074;13.764;2023-04-01T00:43:48;10.50;99.90
43949;DHT22;29429;51.074;13.764;2023-04-01T00:46:17;10.60;99.90
43949;DHT22;29429;51.074;13.764;2023-04-01T00:48:54;10.60;99.90
43949;DHT22;29429;51.074;13.764;2023-04-01T00:51:27;10.60;99.90
43949;DHT22;29429;51.074;13.764;2023-04-01T00:53:58;10.60;99.90
43949;DHT22;29429;51.074;13.764;2023-04-01T00:56:37;10.50;99.90
43949;DHT22;29429;51.074;13.764;2023-04-01T00:59:14;10.50;99.90
43949;DHT22;29429;51.074;13.764;2023-04-01T01:01:46;10.40;99.90
43949;DHT22;29429;51.074;13.764;2023-04-01T01:07:29;10.50;99.90
43949;DHT22;29429;51.074;13.764;2023-04-01T01:10:13;10.40;99.90
43949;DHT22;29429;51.074;13.764;2023-04-01T01:15:44;10.40;99.90
43949;DHT22;29429;51.074;13.764;2023-04-01T01:27:19;10.40;99.90
43949;DHT22;29429;51.074;13.764;2023-04-01T01:33:10;10.50;99.90
43949;DHT22;29429;51.074;13.764;2023-04-01T01:35:53;10.50;99.90
43949;DHT22;29429;51.074;13.764;2023-04-01T01:38:26;10.50;99.90
43949;DHT22;29429;51.074;13.764;2023-04-01T01:41:01;10.50;99.90
43949;DHT22;29429;51.074;13.764;2023-04-01T01:43:41;10.70;99.90
43949;DHT22;29429;51.074;13.764;2023-04-01T01:46:16;10.60;99.90
43949;DHT22;29429;51.074;13.764;2023-04-01T01:48:49;10.60;99.90
43949;DHT22;29429;51.074;13.764;2023-04-01T01:51:20;10.60;99.90
43949;DHT22;29429;51.074;13.764;2023-04-01T01:53:48;10.60;99.90
43949;DHT22;29429;51.074;13.764;2023-04-01T01:56:18;10.50;99.90
43949;DHT22;29429;51.074;13.764;2023-04-01T01:58:52;10.60;99.90
43949;DHT22;29429;51.074;13.764;2023-04-01T02:01:27;10.50;99.90
43949;DHT22;29429;51.074;13.764;2023-04-01T02:04:06;10.50;99.90
43949;DHT22;29429;51.074;13.764;2023-04-01T02:07:01;10.50;99.90
43949;DHT22;29429;51.074;13.764;2023-04-01T02:09:31;10.60;99.90
43949;DHT22;29429;51.074;13.764;2023-04-01T02:12:05;10.50;99.90
43949;DHT22;29429;51.074;13.764;2023-04-01T02:17:33;10.60;99.90
43949;DHT22;29429;51.074;13.764;2023-04-01T02:20:09;10.50;99.90
43949;DHT22;29429;51.074;13.764;2023-04-01T02:22:48;10.50;99.90
43949;DHT22;29429;51.074;13.764;2023-04-01T02:25:39;10.60;99.90
43949;DHT22;29429;51.074;13.764;2023-04-01T02:28:09;10.50;99.90
43949;DHT22;29429;51.074;13.764;2023-04-01T02:30:39;10.50;99.90
43949;DHT22;29429;51.074;13.764;2023-04-01T02:33:09;10.60;99.90
43949;DHT22;29429;51.074;13.764;2023-04-01T02:35:37;10.50;99.90
43949;DHT22;29429;51.074;13.764;2023-04-01T02:38:06;10.50;99.90
43949;DHT22;29429;51.074;13.764;2023-04-01T02:40:49;10.50;99.90
43949;DHT22;29429;51.074;13.764;2023-04-01T02:43:18;10.50;99.90
43949;DHT22;29429;51.074;13.764;2023-04-01T02:45:46;10.50;99.90
43949;DHT22;29429;51.074;13.764;2023-04-01T02:48:13;10.50;99.90
43949;DHT22;29429;51.074;13.764;2023-04-01T02:50:40;10.50;99.90
43949;DHT22;29429;51.074;13.764;2023-04-01T02:53:08;10.50;99.90
43949;DHT22;29429;51.074;13.764;2023-04-01T02:55:35;10.50;99.90
43949;DHT22;29429;51.074;13.764;2023-04-01T02:58:02;10.50;99.90
43949;DHT22;29429;51.074;13.764;2023-04-01T03:00:30;10.50;99.90
43949;DHT22;29429;51.074;13.764;2023-04-01T03:02:57;10.50;99.90
43949;DHT22;29429;51.074;13.764;2023-04-01T03:05:24;10.50;99.90
43949;DHT22;29429;51.074;13.764;2023-04-01T03:07:52;10.40;99.90
43949;DHT22;29429;51.074;13.764;2023-04-01T03:10:19;10.50;99.90
43949;DHT22;29429;51.074;13.764;2023-04-01T03:12:46;10.50;99.90
43949;DHT22;29429;51.074;13.764;2023-04-01T03:15:14;10.50;99.90
43949;DHT22;29429;51.074;13.764;2023-04-01T03:17:42;10.50;99.90
43949;DHT22;29429;51.074;13.764;2023-04-01T03:20:10;10.40;99.90
43949;DHT22;29429;51.074;13.764;2023-04-01T03:22:38;10.50;99.90
43949;DHT22;29429;51.074;13.764;2023-04-01T03:25:10;10.50;99.90
43949;DHT22;29429;51.074;13.764;2023-04-01T03:27:37;10.50;99.90
43949;DHT22;29429;51.074;13.764;2023-04-01T03:30:06;10.60;99.90
43949;DHT22;29429;51.074;13.764;2023-04-01T03:32:41;10.40;99.90
43949;DHT22;29429;51.074;13.764;2023-04-01T03:35:08;10.50;99.90
43949;DHT22;29429;51.074;13.764;2023-04-01T03:37:37;10.40;99.90
43949;DHT22;29429;51.074;13.764;2023-04-01T03:40:05;10.50;99.90
43949;DHT22;29429;51.074;13.764;2023-04-01T03:42:33;10.40;99.90
43949;DHT22;29429;51.074;13.764;2023-04-01T03:45:01;10.40;99.90
43949;DHT22;29429;51.074;13.764;2023-04-01T03:47:29;10.40;99.90
43949;DHT22;29429;51.074;13.764;2023-04-01T03:49:56;10.40;99.90
43949;DHT22;29429;51.074;13.764;2023-04-01T03:52:24;10.40;99.90
43949;DHT22;29429;51.074;13.764;2023-04-01T03:54:51;10.40;99.90
43949;DHT22;29429;51.074;13.764;2023-04-01T03:57:19;10.40;99.90
43949;DHT22;29429;51.074;13.764;2023-04-01T03:59:46;10.40;99.90
43949;DHT22;29429;51.074;13.764;2023-04-01T04:02:13;10.40;99.90
43949;DHT22;29429;51.074;13.764;2023-04-01T04:04:41;10.40;99.90
43949;DHT22;29429;51.074;13.764;2023-04-01T04:07:09;10.40;99.90
43949;DHT22;29429;51.074;13.764;2023-04-01T04:09:55;10.40;99.90
43949;DHT22;29429;51.074;13.764;2023-04-01T04:12:22;10.50;99.90
43949;DHT22;29429;51.074;13.764;2023-04-01T04:14:49;10.50;99.90
43949;DHT22;29429;51.074;13.764;2023-04-01T04:17:16;10.40;99.90
43949;DHT22;29429;51.074;13.764;2023-04-01T04:19:43;10.40;99.90
43949;DHT22;29429;51.074;13.764;2023-04-01T04:22:12;10.40;99.90
43949;DHT22;29429;51.074;13.764;2023-04-01T04:24:39;10.30;99.90
43949;DHT22;29429;51.074;13.764;2023-04-01T04:27:09;10.40;99.90
43949;DHT22;29429;51.074;13.764;2023-04-01T04:29:43;10.30;99.90
43949;DHT22;29429;51.074;13.764;2023-04-01T04:32:10;10.30;99.90
43949;DHT22;29429;51.074;13.764;2023-04-01T04:34:37;10.30;99.90
43949;DHT22;29429;51.074;13.764;2023-04-01T04:37:04;10.30;99.90
43949;DHT22;29429;51.074;13.764;2023-04-01T04:39:35;10.30;99.90
43949;DHT22;29429;51.074;13.764;2023-04-01T04:42:02;10.40;99.90
43949;DHT22;29429;51.074;13.764;2023-04-01T04:44:29;10.30;99.90
43949;DHT22;29429;51.074;13.764;2023-04-01T04:46:57;10.40;99.90
43949;DHT22;29429;51.074;13.764;2023-04-01T04:49:24;10.40;99.90
43949;DHT22;29429;51.074;13.764;2023-04-01T04:51:52;10.40;99.90
43949;DHT22;29429;51.074;13.764;2023-04-01T04:54:22;10.40;99.90
43949;DHT22;29429;51.074;13.764;2023-04-01T04:56:55;10.40;99.90
43949;DHT22;29429;51.074;13.764;2023-04-01T04:59:25;10.40;99.90
43949;DHT22;29429;51.074;13.764;2023-04-01T05:02:18;10.40;99.90
43949;DHT22;29429;51.074;13.764;2023-04-01T05:04:46;10.50;99.90
43949;DHT22;29429;51.074;13.764;2023-04-01T05:07:13;10.40;99.90
43949;DHT22;29429;51.074;13.764;2023-04-01T05:09:41;10.40;99.90
43949;DHT22;29429;51.074;13.764;2023-04-01T05:12:08;10.50;99.90
43949;DHT22;29429;51.074;13.764;2023-04-01T05:15:04;10.40;99.90
43949;DHT22;29429;51.074;13.764;2023-04-01T05:17:32;10.50;99.90
43949;DHT22;29429;51.074;13.764;2023-04-01T05:19:59;10.50;99.90
43949;DHT22;29429;51.074;13.764;2023-04-01T05:22:28;10.60;99.90
43949;DHT22;29429;51.074;13.764;2023-04-01T05:24:56;10.60;99.90
43949;DHT22;29429;51.074;13.764;2023-04-01T05:27:23;10.50;99.90
43949;DHT22;29429;51.074;13.764;2023-04-01T05:29:50;10.60;99.90
43949;DHT22;29429;51.074;13.764;2023-04-01T05:32:43;10.70;99.90
43949;DHT22;29429;51.074;13.764;2023-04-01T05:35:13;10.70;99.90
43949;DHT22;29429;51.074;13.764;2023-04-01T05:37:40;10.70;99.90
43949;DHT22;29429;51.074;13.764;2023-04-01T05:40:45;10.80;99.90
43949;DHT22;29429;51.074;13.764;2023-04-01T05:43:47;10.90;99.90
43949;DHT22;29429;51.074;13.764;2023-04-01T05:46:41;11.10;99.90
43949;DHT22;29429;51.074;13.764;2023-04-01T05:49:19;11.20;99.90
43949;DHT22;29429;51.074;13.764;2023-04-01T05:51:55;11.20;99.90
43949;DHT22;29429;51.074;13.764;2023-04-01T05:54:23;11.40;99.90
43949;DHT22;29429;51.074;13.764;2023-04-01T05:56:51;11.50;99.90
43949;DHT22;29429;51.074;13.764;2023-04-01T05:59:19;11.50;99.90
43949;DHT22;29429;51.074;13.764;2023-04-01T06:01:46;11.50;99.90
43949;DHT22;29429;51.074;13.764;2023-04-01T06:04:15;11.60;99.90
43949;DHT22;29429;51.074;13.764;2023-04-01T06:06:44;11.60;99.90
43949;DHT22;29429;51.074;13.764;2023-04-01T06:09:17;11.60;99.90
43949;DHT22;29429;51.074;13.764;2023-04-01T06:15:34;11.70;99.90
43949;DHT22;29429;51.074;13.764;2023-04-01T06:47:11;11.90;99.90
43949;DHT22;29429;51.074;13.764;2023-04-01T06:53:50;11.90;99.90
43949;DHT22;29429;51.074;13.764;2023-04-01T06:56:48;11.90;99.90
43949;DHT22;29429;51.074;13.764;2023-04-01T06:59:32;12.00;99.90
43949;DHT22;29429;51.074;13.764;2023-04-01T07:04:38;12.00;99.90
43949;DHT22;29429;51.074;13.764;2023-04-01T07:10:05;12.10;99.90
43949;DHT22;29429;51.074;13.764;2023-04-01T07:13:06;12.10;99.90
43949;DHT22;29429;51.074;13.764;2023-04-01T07:16:30;12.20;99.90
43949;DHT22;29429;51.074;13.764;2023-04-01T07:22:00;12.30;99.90
43949;DHT22;29429;51.074;13.764;2023-04-01T07:24:54;12.30;99.90
43949;DHT22;29429;51.074;13.764;2023-04-01T07:27:23;12.30;99.90
43949;DHT22;29429;51.074;13.764;2023-04-01T07:29:51;12.30;99.90
43949;DHT22;29429;51.074;13.764;2023-04-01T07:32:42;12.30;99.90
43949;DHT22;29429;51.074;13.764;2023-04-01T07:35:38;12.30;99.90
43949;DHT22;29429;51.074;13.764;2023-04-01T07:38:26;12.50;99.90
43949;DHT22;29429;51.074;13.764;2023-04-01T07:41:15;12.50;99.90
43949;DHT22;29429;51.074;13.764;2023-04-01T07:47:18;12.60;99.90
43949;DHT22;29429;51.074;13.764;2023-04-01T07:56:10;12.90;99.90
43949;DHT22;29429;51.074;13.764;2023-04-01T08:02:37;13.00;99.90
43949;DHT22;29429;51.074;13.764;2023-04-01T08:05:50;13.10;99.90
43949;DHT22;29429;51.074;13.764;2023-04-01T08:12:01;13.10;99.90
43949;DHT22;29429;51.074;13.764;2023-04-01T08:21:27;13.20;99.90
43949;DHT22;29429;51.074;13.764;2023-04-01T08:24:16;13.20;99.90
43949;DHT22;29429;51.074;13.764;2023-04-01T08:26:54;13.20;99.90
43949;DHT22;29429;51.074;13.764;2023-04-01T08:29:39;13.20;99.90
43949;DHT22;29429;51.074;13.764;2023-04-01T08:32:18;13.20;99.90
43949;DHT22;29429;51.074;13.764;2023-04-01T08:35:01;13.30;99.90
43949;DHT22;29429;51.074;13.764;2023-04-01T08:37:57;13.40;99.90
43949;DHT22;29429;51.074;13.764;2023-04-01T08:40:50;13.50;99.90
43949;DHT22;29429;51.074;13.764;2023-04-01T08:53:12;13.50;99.90
43949;DHT22;29429;51.074;13.764;2023-04-01T08:56:25;13.60;99.90
43949;DHT22;29429;51.074;13.764;2023-04-01T09:15:11;13.80;99.90
43949;DHT22;29429;51.074;13.764;2023-04-01T09:21:42;14.10;99.90
43949;DHT22;29429;51.074;13.764;2023-04-01T09:27:13;14.00;99.90
43949;DHT22;29429;51.074;13.764;2023-04-01T09:35:48;13.90;99.90
43949;DHT22;29429;51.074;13.764;2023-04-01T09:38:58;13.90;99.90
43949;DHT22;29429;51.074;13.764;2023-04-01T09:44:53;13.90;99.90
43949;DHT22;29429;51.074;13.764;2023-04-01T09:50:41;13.90;99.90
43949;DHT22;29429;51.074;13.764;2023-04-01T09:56:13;14.10;99.90
43949;DHT22;29429;51.074;13.764;2023-04-01T10:13:03;14.30;99.90
43949;DHT22;29429;51.074;13.764;2023-04-01T10:16:14;14.30;99.90
43949;DHT22;29429;51.074;13.764;2023-04-01T10:25:34;14.10;99.90
43949;DHT22;29429;51.074;13.764;2023-04-01T10:46:20;14.30;99.90
43949;DHT22;29429;51.074;13.764;2023-04-01T11:06:46;13.80;99.90
43949;DHT22;29429;51.074;13.764;2023-04-01T11:13:33;13.80;99.90
43949;DHT22;29429;51.074;13.764;2023-04-01T11:19:50;13.90;99.90
43949;DHT22;29429;51.074;13.764;2023-04-01T11:27:17;14.40;99.90
43949;DHT22;29429;51.074;13.764;2023-04-01T11:38:22;14.70;99.90
43949;DHT22;29429;51.074;13.764;2023-04-01T12:02:03;15.20;99.90
43949;DHT22;29429;51.074;13.764;2023-04-01T12:04:55;15.40;99.90
43949;DHT22;29429;51.074;13.764;2023-04-01T12:08:18;15.60;99.90
43949;DHT22;29429;51.074;13.764;2023-04-01T12:11:33;15.60;99.90
43949;DHT22;29429;51.074;13.764;2023-04-01T12:14:31;15.60;99.90
43949;DHT22;29429;51.074;13.764;2023-04-01T12:23:20;14.70;99.90
43949;DHT22;29429;51.074;13.764;2023-04-01T13:12:23;15.50;99.90
43949;DHT22;29429;51.074;13.764;2023-04-01T13:18:22;15.50;99.90
43949;DHT22;29429;51.074;13.764;2023-04-01T13:21:11;15.40;99.90
43949;DHT22;29429;51.074;13.764;2023-04-01T13:24:07;15.10;99.90
43949;DHT22;29429;51.074;13.764;2023-04-01T13:32:49;14.50;99.90
43949;DHT22;29429;51.074;13.764;2023-04-01T13:35:48;14.30;99.90
43949;DHT22;29429;51.074;13.764;2023-04-01T13:38:35;14.20;99.90
43949;DHT22;29429;51.074;13.764;2023-04-01T13:44:19;14.00;99.90
43949;DHT22;29429;51.074;13.764;2023-04-01T14:14:13;14.70;99.90
43949;DHT22;29429;51.074;13.764;2023-04-01T14:20:46;14.40;99.90
43949;DHT22;29429;51.074;13.764;2023-04-01T14:23:49;14.50;99.90
43949;DHT22;29429;51.074;13.764;2023-04-01T14:32:24;14.80;99.90
43949;DHT22;29429;51.074;13.764;2023-04-01T14:45:46;14.60;99.90
43949;DHT22;29429;51.074;13.764;2023-04-01T14:53:41;14.40;99.90
43949;DHT22;29429;51.074;13.764;2023-04-01T15:01:31;14.20;99.90
43949;DHT22;29429;51.074;13.764;2023-04-01T15:05:59;14.10;99.90
43949;DHT22;29429;51.074;13.764;2023-04-01T15:46:51;14.40;99.90
43949;DHT22;29429;51.074;13.764;2023-04-01T15:58:33;14.30;99.90
43949;DHT22;29429;51.074;13.764;2023-04-01T16:09:56;13.90;99.90
43949;DHT22;29429;51.074;13.764;2023-04-01T16:33:09;13.30;99.90
43949;DHT22;29429;51.074;13.764;2023-04-01T16:50:26;12.90;99.90
43949;DHT22;29429;51.074;13.764;2023-04-01T17:06:34;12.60;99.90
43949;DHT22;29429;51.074;13.764;2023-04-01T17:20:54;12.50;99.90
43949;DHT22;29429;51.074;13.764;2023-04-01T17:27:56;12.40;99.90
43949;DHT22;29429;51.074;13.764;2023-04-01T17:43:24;12.20;99.90
43949;DHT22;29429;51.074;13.764;2023-04-01T17:50:14;12.10;99.90
43949;DHT22;29429;51.074;13.764;2023-04-01T17:53:18;12.10;99.90
43949;DHT22;29429;51.074;13.764;2023-04-01T17:59:21;12.00;99.90
43949;DHT22;29429;51.074;13.764;2023-04-01T18:02:15;12.00;99.90
43949;DHT22;29429;51.074;13.764;2023-04-01T18:25:36;11.50;99.90
43949;DHT22;29429;51.074;13.764;2023-04-01T18:41:20;11.50;99.90
43949;DHT22;29429;51.074;13.764;2023-04-01T18:47:41;11.40;99.90
43949;DHT22;29429;51.074;13.764;2023-04-01T18:51:09;11.40;99.90
43949;DHT22;29429;51.074;13.764;2023-04-01T18:53:54;11.30;99.90
43949;DHT22;29429;51.074;13.764;2023-04-01T18:56:41;11.20;99.90
43949;DHT22;29429;51.074;13.764;2023-04-01T19:02:29;11.10;99.90
43949;DHT22;29429;51.074;13.764;2023-04-01T19:08:38;11.00;99.90
43949;DHT22;29429;51.074;13.764;2023-04-01T19:15:25;10.80;99.90
43949;DHT22;29429;51.074;13.764;2023-04-01T19:27:41;10.70;99.90
43949;DHT22;29429;51.074;13.764;2023-04-01T19:34:35;10.60;99.90
43949;DHT22;29429;51.074;13.764;2023-04-01T20:00:44;10.40;99.90
43949;DHT22;29429;51.074;13.764;2023-04-01T20:10:02;10.50;99.90
43949;DHT22;29429;51.074;13.764;2023-04-01T20:13:28;10.50;99.90
43949;DHT22;29429;51.074;13.764;2023-04-01T20:16:21;10.50;99.90
43949;DHT22;29429;51.074;13.764;2023-04-01T20:20:01;10.60;99.90
43949;DHT22;29429;51.074;13.764;2023-04-01T20:27:19;10.60;99.90
43949;DHT22;29429;51.074;13.764;2023-04-01T20:34:15;10.60;99.90
43949;DHT22;29429;51.074;13.764;2023-04-01T20:37:38;10.60;99.90
43949;DHT22;29429;51.074;13.764;2023-04-01T20:40:39;10.60;99.90
43949;DHT22;29429;51.074;13.764;2023-04-01T20:43:44;10.60;99.90
43949;DHT22;29429;51.074;13.764;2023-04-01T20:47:00;10.60;99.90
43949;DHT22;29429;51.074;13.764;2023-04-01T21:16:51;10.50;99.90
43949;DHT22;29429;51.074;13.764;2023-04-01T21:40:53;10.30;99.90
43949;DHT22;29429;51.074;13.764;2023-04-01T21:50:48;10.30;99.90
43949;DHT22;29429;51.074;13.764;2023-04-01T22:05:30;9.90;99.90
43949;DHT22;29429;51.074;13.764;2023-04-01T22:17:51;9.80;99.90
43949;DHT22;29429;51.074;13.764;2023-04-01T22:21:05;9.80;99.90
43949;DHT22;29429;51.074;13.764;2023-04-01T22:40:00;9.30;99.90
43949;DHT22;29429;51.074;13.764;2023-04-01T22:43:08;9.30;99.90
43949;DHT22;29429;51.074;13.764;2023-04-01T22:52:12;9.20;99.90
43949;DHT22;29429;51.074;13.764;2023-04-01T22:54:52;9.10;99.90
43949;DHT22;29429;51.074;13.764;2023-04-01T22:57:47;9.10;99.90
43949;DHT22;29429;51.074;13.764;2023-04-01T23:01:01;9.00;99.90
43949;DHT22;29429;51.074;13.764;2023-04-01T23:03:57;9.00;99.90
43949;DHT22;29429;51.074;13.764;2023-04-01T23:06:39;9.00;99.90
43949;DHT22;29429;51.074;13.764;2023-04-01T23:09:33;8.90;99.90
43949;DHT22;29429;51.074;13.764;2023-04-01T23:12:08;8.90;99.90
43949;DHT22;29429;51.074;13.764;2023-04-01T23:15:01;8.80;99.90
